Time;durP1;ratioP1;P1;durP2;ratioP2;P2;SDS_P1;SDS_P2;PMS_P1;PMS_P2;Temp;Humidity;BMP_temperature;BMP_pressure;BME280_temperature;BME280_humidity;BME280_pressure;Samples;Min_cycle;Max_cycle;Signal;HPM_P1;HPM_P2
2021/11/20 00:04:23;;;;;;;0.10;0.10;;;;;;;;;;5672132;22;20240;-68
2021/11/20 00:06:51;;;;;;;0.10;0.10;;;;;;;;;;5038794;28;20204;-67
2021/11/20 00:09:19;;;;;;;0.10;0.10;;;;;;;;;;5035327;28;20215;-67
2021/11/20 00:11:47;;;;;;;0.10;0.10;;;;;;;;;;5023008;28;20268;-67
2021/11/20 00:14:15;;;;;;;0.10;0.10;;;;;;;;;;5022973;28;20221;-68
2021/11/20 00:16:44;;;;;;;0.10;0.10;;;;;;;;;;5022767;28;20285;-67
2021/11/20 00:19:13;;;;;;;0.10;0.10;;;;;;;;;;5023672;28;20505;-67
2021/11/20 00:21:42;;;;;;;0.10;0.10;;;;;;;;;;5023097;28;20205;-67
2021/11/20 00:24:16;;;;;;;0.10;0.10;;;;;;;;;;5023178;28;20210;-67
2021/11/20 00:26:42;;;;;;;0.10;0.10;;;;;;;;;;5023864;28;20198;-67
2021/11/20 00:29:21;;;;;;;0.10;0.10;;;;;;;;;;5023324;28;20202;-67
2021/11/20 00:31:50;;;;;;;0.10;0.10;;;;;;;;;;5023790;28;20201;-67
2021/11/20 00:34:18;;;;;;;0.10;0.10;;;;;;;;;;5023298;28;20209;-67
2021/11/20 00:36:45;;;;;;;0.10;0.10;;;;;;;;;;5023587;28;20562;-68
2021/11/20 00:39:13;;;;;;;0.10;0.10;;;;;;;;;;5023418;28;20554;-68
2021/11/20 00:41:39;;;;;;;0.10;0.10;;;;;;;;;;5023045;28;20209;-67
2021/11/20 00:44:06;;;;;;;0.10;0.10;;;;;;;;;;5022929;28;20202;-67
2021/11/20 00:46:33;;;;;;;0.87;0.87;;;;;;;;;;5023190;28;20198;-67
2021/11/20 00:49:00;;;;;;;0.10;0.10;;;;;;;;;;5023232;28;20437;-68
2021/11/20 00:51:28;;;;;;;0.10;0.10;;;;;;;;;;5022891;28;20441;-68
2021/11/20 00:53:55;;;;;;;0.10;0.10;;;;;;;;;;5023200;28;20212;-68
2021/11/20 00:56:23;;;;;;;0.00;0.00;;;;;;;;;;5022570;28;20225;-68
2021/11/20 00:58:49;;;;;;;0.10;0.10;;;;;;;;;;5023145;28;20205;-67
2021/11/20 01:01:17;;;;;;;0.10;0.10;;;;;;;;;;5023268;28;20399;-68
2021/11/20 01:03:44;;;;;;;0.10;0.10;;;;;;;;;;5023048;28;20227;-67
2021/11/20 01:06:12;;;;;;;0.10;0.10;;;;;;;;;;5022535;28;20199;-68
2021/11/20 01:08:40;;;;;;;0.10;0.10;;;;;;;;;;5022699;28;20282;-68
2021/11/20 01:11:09;;;;;;;1.33;0.83;;;;;;;;;;5023176;28;20201;-68
2021/11/20 01:13:35;;;;;;;0.10;0.10;;;;;;;;;;5022969;28;20244;-67
2021/11/20 01:16:03;;;;;;;0.10;0.10;;;;;;;;;;5023070;28;20225;-68
2021/11/20 01:18:30;;;;;;;0.10;0.10;;;;;;;;;;5022567;28;20205;-67
2021/11/20 01:20:56;;;;;;;0.10;0.10;;;;;;;;;;5022800;28;20202;-68
2021/11/20 01:23:26;;;;;;;0.20;0.20;;;;;;;;;;5022831;28;20411;-66
2021/11/20 01:25:53;;;;;;;0.10;0.10;;;;;;;;;;5022961;28;20209;-67
2021/11/20 01:28:20;;;;;;;0.10;0.10;;;;;;;;;;5023057;28;20403;-67
2021/11/20 01:30:47;;;;;;;0.10;0.10;;;;;;;;;;5022854;28;20222;-68
2021/11/20 01:33:13;;;;;;;0.10;0.10;;;;;;;;;;5022281;28;20217;-67
2021/11/20 01:35:40;;;;;;;0.10;0.10;;;;;;;;;;5022782;28;20350;-68
2021/11/20 01:38:07;;;;;;;0.10;0.10;;;;;;;;;;5023037;28;20511;-67
2021/11/20 01:40:37;;;;;;;0.10;0.10;;;;;;;;;;5022331;28;20206;-68
2021/11/20 01:43:04;;;;;;;0.10;0.10;;;;;;;;;;5009666;28;20205;-68
2021/11/20 01:45:32;;;;;;;0.10;0.10;;;;;;;;;;5022787;28;20398;-67
2021/11/20 01:48:07;;;;;;;0.10;0.10;;;;;;;;;;5022837;28;20197;-67
2021/11/20 01:50:35;;;;;;;0.10;0.10;;;;;;;;;;5022780;28;20492;-67
2021/11/20 01:53:07;;;;;;;0.10;0.10;;;;;;;;;;5022502;28;20236;-68
2021/11/20 01:55:37;;;;;;;0.10;0.10;;;;;;;;;;5022201;28;20202;-66
2021/11/20 01:58:06;;;;;;;0.10;0.10;;;;;;;;;;5022219;28;20230;-67
2021/11/20 02:00:35;;;;;;;0.70;0.70;;;;;;;;;;5022775;28;20205;-67
2021/11/20 02:03:05;;;;;;;0.10;0.10;;;;;;;;;;5022152;28;20202;-68
2021/11/20 02:05:34;;;;;;;0.10;0.10;;;;;;;;;;5022396;28;20237;-67
2021/11/20 02:08:02;;;;;;;0.10;0.10;;;;;;;;;;5022351;28;20204;-67
2021/11/20 02:10:31;;;;;;;0.10;0.10;;;;;;;;;;5022668;28;20206;-67
2021/11/20 02:13:02;;;;;;;0.10;0.10;;;;;;;;;;5022125;28;20202;-67
2021/11/20 02:15:31;;;;;;;0.10;0.10;;;;;;;;;;5022578;28;20213;-67
2021/11/20 02:17:59;;;;;;;0.10;0.10;;;;;;;;;;5025845;28;20229;-67
2021/11/20 02:20:29;;;;;;;0.10;0.10;;;;;;;;;;5026095;28;20390;-67
2021/11/20 02:22:55;;;;;;;0.10;0.10;;;;;;;;;;5025999;28;20200;-67
2021/11/20 02:25:21;;;;;;;0.10;0.10;;;;;;;;;;5025863;28;20393;-68
2021/11/20 02:27:50;;;;;;;0.10;0.10;;;;;;;;;;5025876;28;20347;-67
2021/11/20 02:30:19;;;;;;;0.10;0.10;;;;;;;;;;5025507;28;20455;-67
2021/11/20 02:32:47;;;;;;;0.10;0.10;;;;;;;;;;5019737;28;20233;-68
2021/11/20 02:35:14;;;;;;;0.10;0.10;;;;;;;;;;5019880;28;20213;-68
2021/11/20 02:37:41;;;;;;;0.10;0.10;;;;;;;;;;5025701;28;20249;-68
2021/11/20 02:40:08;;;;;;;0.10;0.10;;;;;;;;;;5025660;28;20218;-68
2021/11/20 02:42:36;;;;;;;0.10;0.10;;;;;;;;;;5024558;28;20261;-68
2021/11/20 02:45:10;;;;;;;0.10;0.10;;;;;;;;;;5025575;28;20201;-68
2021/11/20 02:47:38;;;;;;;0.10;0.10;;;;;;;;;;5025384;28;20192;-68
2021/11/20 02:50:04;;;;;;;0.10;0.10;;;;;;;;;;5025443;28;20219;-67
2021/11/20 02:52:31;;;;;;;0.10;0.10;;;;;;;;;;5024973;28;20217;-68
2021/11/20 02:54:57;;;;;;;0.10;0.10;;;;;;;;;;5025230;28;20284;-67
2021/11/20 02:57:25;;;;;;;0.10;0.10;;;;;;;;;;5025307;28;20325;-67
2021/11/20 02:59:52;;;;;;;0.10;0.10;;;;;;;;;;5025219;28;20390;-67
2021/11/20 03:02:18;;;;;;;0.10;0.10;;;;;;;;;;5025186;28;20469;-68
2021/11/20 03:04:46;;;;;;;0.10;0.10;;;;;;;;;;5024825;28;20240;-67
2021/11/20 03:07:13;;;;;;;0.10;0.10;;;;;;;;;;5024918;28;20205;-67
2021/11/20 03:09:40;;;;;;;0.10;0.10;;;;;;;;;;5024896;28;20268;-67
2021/11/20 03:12:08;;;;;;;0.10;0.10;;;;;;;;;;5025043;28;20488;-67
2021/11/20 03:14:35;;;;;;;0.10;0.10;;;;;;;;;;5024404;28;20210;-68
2021/11/20 03:17:02;;;;;;;0.10;0.10;;;;;;;;;;5024917;28;20256;-67
2021/11/20 03:19:30;;;;;;;0.10;0.10;;;;;;;;;;5025010;28;20205;-68
2021/11/20 03:21:59;;;;;;;0.10;0.10;;;;;;;;;;5024504;28;20208;-68
2021/11/20 03:24:27;;;;;;;0.10;0.10;;;;;;;;;;5024840;28;20220;-67
2021/11/20 03:26:54;;;;;;;0.10;0.10;;;;;;;;;;5025157;28;20473;-67
2021/11/20 03:29:20;;;;;;;0.10;0.10;;;;;;;;;;5023979;28;20209;-67
2021/11/20 03:31:49;;;;;;;0.10;0.10;;;;;;;;;;5024470;28;20207;-67
2021/11/20 03:34:16;;;;;;;0.20;0.20;;;;;;;;;;5024441;28;20209;-66
2021/11/20 03:36:42;;;;;;;0.10;0.10;;;;;;;;;;5024687;28;20393;-66
2021/11/20 03:39:10;;;;;;;0.10;0.10;;;;;;;;;;5025676;28;20202;-66
2021/11/20 03:41:36;;;;;;;0.10;0.10;;;;;;;;;;5033345;28;20212;-67
2021/11/20 03:44:03;;;;;;;0.30;0.30;;;;;;;;;;5038982;28;20286;-66
2021/11/20 03:46:29;;;;;;;0.10;0.10;;;;;;;;;;5038037;28;20205;-67
2021/11/20 03:48:56;;;;;;;0.10;0.10;;;;;;;;;;5031713;28;20519;-67
2021/11/20 03:51:22;;;;;;;0.10;0.10;;;;;;;;;;5022856;28;20484;-67
2021/11/20 03:53:49;;;;;;;0.10;0.10;;;;;;;;;;5021324;28;20209;-67
2021/11/20 03:56:16;;;;;;;0.10;0.10;;;;;;;;;;5026021;28;20201;-67
2021/11/20 03:58:43;;;;;;;0.10;0.10;;;;;;;;;;5030659;28;20212;-67
2021/11/20 04:01:10;;;;;;;0.10;0.10;;;;;;;;;;5023926;28;20206;-67
2021/11/20 04:03:39;;;;;;;0.10;0.10;;;;;;;;;;5023538;28;20221;-67
2021/11/20 04:06:10;;;;;;;0.10;0.10;;;;;;;;;;5020778;28;20242;-67
2021/11/20 04:08:36;;;;;;;0.10;0.10;;;;;;;;;;5013990;28;20194;-67
2021/11/20 04:11:03;;;;;;;0.10;0.10;;;;;;;;;;5023676;28;20496;-67
2021/11/20 04:13:31;;;;;;;0.10;0.10;;;;;;;;;;5024333;28;20372;-67
2021/11/20 04:15:57;;;;;;;0.10;0.10;;;;;;;;;;5018550;28;20205;-67
2021/11/20 04:18:24;;;;;;;0.10;0.10;;;;;;;;;;5024318;28;20222;-67
2021/11/20 04:20:50;;;;;;;0.10;0.10;;;;;;;;;;5023375;28;20206;-67
2021/11/20 04:23:17;;;;;;;0.10;0.10;;;;;;;;;;5027265;28;20493;-67
2021/11/20 04:25:43;;;;;;;0.10;0.10;;;;;;;;;;5018072;28;20208;-68
2021/11/20 04:28:10;;;;;;;0.10;0.10;;;;;;;;;;5036548;28;20201;-68
2021/11/20 04:30:39;;;;;;;0.10;0.10;;;;;;;;;;5028506;28;20204;-68
2021/11/20 04:33:05;;;;;;;0.10;0.10;;;;;;;;;;5027976;28;20362;-67
2021/11/20 04:35:32;;;;;;;0.10;0.10;;;;;;;;;;5026827;28;20236;-67
2021/11/20 04:37:58;;;;;;;0.10;0.10;;;;;;;;;;5032867;28;20221;-68
2021/11/20 04:40:25;;;;;;;0.10;0.10;;;;;;;;;;5020776;28;20217;-67
2021/11/20 04:42:54;;;;;;;0.53;0.53;;;;;;;;;;5028117;28;20201;-67
2021/11/20 04:45:22;;;;;;;0.10;0.10;;;;;;;;;;5026603;28;20266;-68
2021/11/20 04:47:50;;;;;;;0.10;0.10;;;;;;;;;;5036659;28;20204;-67
2021/11/20 04:50:18;;;;;;;0.10;0.10;;;;;;;;;;5034036;28;20209;-68
2021/11/20 04:52:44;;;;;;;0.10;0.10;;;;;;;;;;5023169;28;20209;-68
2021/11/20 04:55:11;;;;;;;0.10;0.10;;;;;;;;;;5022920;28;20232;-68
2021/11/20 04:57:37;;;;;;;0.10;0.10;;;;;;;;;;5022878;28;20279;-67
2021/11/20 05:00:05;;;;;;;0.10;0.10;;;;;;;;;;5022396;28;20202;-68
2021/11/20 05:02:32;;;;;;;0.10;0.10;;;;;;;;;;5022495;28;20209;-67
2021/11/20 05:04:59;;;;;;;0.13;0.13;;;;;;;;;;5022484;28;20441;-67
2021/11/20 05:07:26;;;;;;;0.10;0.10;;;;;;;;;;5022939;28;20228;-68
2021/11/20 05:09:55;;;;;;;0.10;0.10;;;;;;;;;;5022849;28;20236;-68
2021/11/20 05:12:22;;;;;;;0.10;0.10;;;;;;;;;;5009598;28;20206;-67
2021/11/20 05:14:48;;;;;;;0.10;0.10;;;;;;;;;;5022672;28;20269;-68
2021/11/20 05:17:15;;;;;;;0.10;0.10;;;;;;;;;;5022931;28;20228;-68
2021/11/20 05:19:41;;;;;;;0.10;0.10;;;;;;;;;;5023011;28;20213;-68
2021/11/20 05:22:09;;;;;;;0.10;0.10;;;;;;;;;;5022616;28;20209;-68
2021/11/20 05:24:36;;;;;;;0.10;0.10;;;;;;;;;;5022970;28;20546;-68
2021/11/20 05:27:02;;;;;;;0.10;0.10;;;;;;;;;;5022807;28;20216;-67
2021/11/20 05:29:36;;;;;;;0.10;0.10;;;;;;;;;;5022865;28;20205;-67
2021/11/20 05:32:04;;;;;;;0.10;0.10;;;;;;;;;;5022805;28;20227;-68
2021/11/20 05:34:30;;;;;;;0.10;0.10;;;;;;;;;;5022571;28;20205;-68
2021/11/20 05:36:57;;;;;;;0.10;0.10;;;;;;;;;;5022541;28;20206;-68
2021/11/20 05:39:24;;;;;;;0.10;0.10;;;;;;;;;;5022468;28;20202;-68
2021/11/20 05:41:52;;;;;;;0.10;0.10;;;;;;;;;;5022473;28;20216;-68
2021/11/20 05:44:18;;;;;;;0.10;0.10;;;;;;;;;;5021926;28;20212;-67
2021/11/20 05:46:45;;;;;;;0.10;0.10;;;;;;;;;;5033270;28;20232;-68
2021/11/20 05:49:12;;;;;;;0.10;0.10;;;;;;;;;;5036134;28;20198;-68
2021/11/20 05:51:39;;;;;;;0.10;0.10;;;;;;;;;;5023368;28;20554;-68
2021/11/20 05:54:05;;;;;;;0.10;0.10;;;;;;;;;;5032231;28;20224;-68
2021/11/20 05:56:33;;;;;;;0.10;0.10;;;;;;;;;;5033697;28;20205;-68
2021/11/20 05:59:00;;;;;;;0.20;0.20;;;;;;;;;;5028889;28;20237;-68
2021/11/20 06:01:26;;;;;;;0.10;0.10;;;;;;;;;;5039708;28;20209;-68
2021/11/20 06:03:53;;;;;;;0.10;0.10;;;;;;;;;;5034236;28;20431;-67
2021/11/20 06:06:19;;;;;;;0.10;0.10;;;;;;;;;;5026031;28;20208;-68
2021/11/20 06:08:46;;;;;;;0.10;0.10;;;;;;;;;;5025880;28;20257;-68
2021/11/20 06:11:12;;;;;;;0.10;0.10;;;;;;;;;;5028332;28;20228;-68
2021/11/20 06:13:40;;;;;;;0.10;0.10;;;;;;;;;;5032223;28;20520;-68
2021/11/20 06:16:07;;;;;;;0.10;0.10;;;;;;;;;;5026335;28;20220;-68
2021/11/20 06:18:33;;;;;;;0.10;0.10;;;;;;;;;;5035516;28;20261;-68
2021/11/20 06:21:02;;;;;;;0.10;0.10;;;;;;;;;;5025889;28;20409;-67
2021/11/20 06:23:28;;;;;;;0.10;0.10;;;;;;;;;;5030477;28;20402;-68
2021/11/20 06:25:55;;;;;;;0.10;0.10;;;;;;;;;;5020732;28;20209;-68
2021/11/20 06:28:22;;;;;;;0.10;0.10;;;;;;;;;;5042500;28;20204;-68
2021/11/20 06:30:49;;;;;;;0.10;0.10;;;;;;;;;;5035638;28;20240;-67
2021/11/20 06:33:16;;;;;;;0.10;0.10;;;;;;;;;;5027191;28;20209;-68
2021/11/20 06:35:42;;;;;;;0.10;0.10;;;;;;;;;;5025366;28;20212;-68
2021/11/20 06:38:09;;;;;;;0.10;0.10;;;;;;;;;;5025471;28;20232;-68
2021/11/20 06:40:37;;;;;;;0.10;0.10;;;;;;;;;;5011655;28;20448;-68
2021/11/20 06:43:04;;;;;;;8.27;7.63;;;;;;;;;;5025680;28;20208;-68
2021/11/20 06:45:31;;;;;;;0.10;0.10;;;;;;;;;;5039741;28;20201;-68
2021/11/20 06:47:59;;;;;;;0.10;0.10;;;;;;;;;;5038486;28;20197;-68
2021/11/20 06:50:26;;;;;;;0.10;0.10;;;;;;;;;;5035773;28;20210;-68
2021/11/20 06:52:53;;;;;;;0.10;0.10;;;;;;;;;;5025123;28;20230;-68
2021/11/20 06:55:20;;;;;;;0.10;0.10;;;;;;;;;;5034511;28;20235;-68
2021/11/20 06:57:56;;;;;;;0.10;0.10;;;;;;;;;;5026200;28;20228;-67
2021/11/20 07:00:26;;;;;;;0.00;0.00;;;;;;;;;;5033802;28;20451;-68
2021/11/20 07:02:53;;;;;;;0.10;0.10;;;;;;;;;;5015161;28;20201;-68
2021/11/20 07:05:21;;;;;;;0.10;0.10;;;;;;;;;;5034762;28;20470;-68
2021/11/20 07:07:48;;;;;;;0.00;0.00;;;;;;;;;;5030738;28;20205;-67
2021/11/20 07:10:16;;;;;;;0.10;0.10;;;;;;;;;;5036292;28;20213;-68
2021/11/20 07:12:43;;;;;;;0.10;0.10;;;;;;;;;;5025357;28;20205;-68
2021/11/20 07:15:10;;;;;;;0.10;0.10;;;;;;;;;;5033565;28;20255;-68
2021/11/20 07:17:36;;;;;;;0.10;0.10;;;;;;;;;;5031973;28;20484;-68
2021/11/20 07:20:02;;;;;;;0.10;0.10;;;;;;;;;;5032877;28;20201;-68
2021/11/20 07:22:30;;;;;;;0.10;0.10;;;;;;;;;;5024905;28;20265;-68
2021/11/20 07:24:57;;;;;;;0.10;0.10;;;;;;;;;;5038375;28;20213;-68
2021/11/20 07:27:23;;;;;;;0.10;0.10;;;;;;;;;;5031451;28;20330;-68
2021/11/20 07:29:50;;;;;;;0.10;0.10;;;;;;;;;;5024092;28;20227;-68
2021/11/20 07:32:16;;;;;;;0.10;0.10;;;;;;;;;;5023835;28;20237;-68
2021/11/20 07:34:42;;;;;;;0.10;0.10;;;;;;;;;;5023786;28;20205;-68
2021/11/20 07:37:09;;;;;;;0.10;0.10;;;;;;;;;;5024287;28;20206;-68
2021/11/20 07:39:37;;;;;;;0.10;0.10;;;;;;;;;;5024247;28;20562;-67
2021/11/20 07:42:04;;;;;;;0.10;0.10;;;;;;;;;;5022980;28;20232;-67
2021/11/20 07:44:30;;;;;;;0.10;0.10;;;;;;;;;;5024216;28;20212;-67
2021/11/20 07:46:57;;;;;;;0.10;0.10;;;;;;;;;;5024501;28;20201;-68
2021/11/20 07:49:23;;;;;;;0.10;0.10;;;;;;;;;;5023736;28;20236;-67
2021/11/20 07:51:50;;;;;;;0.10;0.10;;;;;;;;;;5023609;28;20212;-67
2021/11/20 07:54:17;;;;;;;0.10;0.10;;;;;;;;;;5021063;28;20210;-67
2021/11/20 07:56:45;;;;;;;0.10;0.10;;;;;;;;;;5023690;28;20202;-67
2021/11/20 07:59:12;;;;;;;0.10;0.10;;;;;;;;;;5023348;28;20233;-67
2021/11/20 08:01:38;;;;;;;0.10;0.10;;;;;;;;;;5022589;28;20210;-67
2021/11/20 08:04:05;;;;;;;0.00;0.00;;;;;;;;;;5023423;28;20233;-67
2021/11/20 08:06:32;;;;;;;0.10;0.10;;;;;;;;;;5023462;28;20233;-68
2021/11/20 08:09:02;;;;;;;0.10;0.10;;;;;;;;;;5023346;28;20201;-67
2021/11/20 08:11:29;;;;;;;0.10;0.10;;;;;;;;;;5023315;28;20198;-67
2021/11/20 08:13:56;;;;;;;0.10;0.10;;;;;;;;;;5023552;28;20205;-67
2021/11/20 08:16:23;;;;;;;0.10;0.10;;;;;;;;;;5019238;28;20209;-67
2021/11/20 08:18:49;;;;;;;0.10;0.10;;;;;;;;;;5023939;28;20524;-67
2021/11/20 08:21:16;;;;;;;0.20;0.20;;;;;;;;;;5023719;28;20205;-68
2021/11/20 08:23:42;;;;;;;0.10;0.10;;;;;;;;;;5021992;28;20244;-68
2021/11/20 08:26:09;;;;;;;0.10;0.10;;;;;;;;;;5023116;28;20543;-68
2021/11/20 08:28:36;;;;;;;0.10;0.10;;;;;;;;;;5019565;28;20421;-67
2021/11/20 08:31:04;;;;;;;0.10;0.10;;;;;;;;;;5022339;28;20212;-67
2021/11/20 08:33:30;;;;;;;29.27;6.43;;;;;;;;;;5021043;28;20205;-67
2021/11/20 08:35:57;;;;;;;0.10;0.10;;;;;;;;;;5023414;28;20416;-68
2021/11/20 08:38:24;;;;;;;0.10;0.10;;;;;;;;;;5021344;28;20536;-68
2021/11/20 08:40:52;;;;;;;0.10;0.10;;;;;;;;;;5022494;28;20228;-68
2021/11/20 08:43:19;;;;;;;0.10;0.10;;;;;;;;;;5020476;28;20232;-69
2021/11/20 08:45:48;;;;;;;0.10;0.10;;;;;;;;;;5023242;28;20202;-69
2021/11/20 08:48:16;;;;;;;0.10;0.10;;;;;;;;;;5023141;28;20561;-69
2021/11/20 08:50:44;;;;;;;0.10;0.10;;;;;;;;;;5021976;28;20268;-68
2021/11/20 08:53:10;;;;;;;0.10;0.10;;;;;;;;;;5022381;28;20841;-69
2021/11/20 08:55:38;;;;;;;0.10;0.10;;;;;;;;;;5020305;28;20244;-65
2021/11/20 08:58:06;;;;;;;0.10;0.10;;;;;;;;;;5009709;28;20210;-68
2021/11/20 09:00:34;;;;;;;0.10;0.10;;;;;;;;;;5015191;28;20240;-68
2021/11/20 09:03:06;;;;;;;0.10;0.10;;;;;;;;;;5022696;28;20469;-64
2021/11/20 09:05:38;;;;;;;0.10;0.10;;;;;;;;;;5022564;28;20243;-68
2021/11/20 09:08:19;;;;;;;0.10;0.10;;;;;;;;;;5016503;28;20386;-66
2021/11/20 09:10:56;;;;;;;0.30;0.30;;;;;;;;;;5019742;28;20251;-68
2021/11/20 09:13:25;;;;;;;0.10;0.10;;;;;;;;;;5017213;28;20197;-69
2021/11/20 09:15:54;;;;;;;0.10;0.10;;;;;;;;;;5019441;28;20206;-69
2021/11/20 09:18:21;;;;;;;0.10;0.10;;;;;;;;;;5010065;28;20260;-67
2021/11/20 09:20:52;;;;;;;0.10;0.10;;;;;;;;;;5022785;28;20206;-67
2021/11/20 09:23:18;;;;;;;0.10;0.10;;;;;;;;;;5017472;28;20233;-67
2021/11/20 09:25:45;;;;;;;0.10;0.10;;;;;;;;;;5022086;28;20203;-68
2021/11/20 09:28:12;;;;;;;0.10;0.10;;;;;;;;;;5022980;28;20213;-68
2021/11/20 09:30:41;;;;;;;0.10;0.10;;;;;;;;;;5025094;28;20206;-68
2021/11/20 09:33:08;;;;;;;0.10;0.10;;;;;;;;;;5021700;28;20210;-68
2021/11/20 09:35:35;;;;;;;0.10;0.10;;;;;;;;;;5025097;28;20205;-69
2021/11/20 09:38:05;;;;;;;0.10;0.10;;;;;;;;;;5025313;28;20205;-68
2021/11/20 09:40:32;;;;;;;0.10;0.10;;;;;;;;;;5024185;28;20220;-68
2021/11/20 09:43:04;;;;;;;0.10;0.10;;;;;;;;;;5024576;28;20232;-67
2021/11/20 09:45:33;;;;;;;0.10;0.10;;;;;;;;;;5025423;28;20213;-68
2021/11/20 09:48:01;;;;;;;0.10;0.10;;;;;;;;;;5024204;28;20221;-69
2021/11/20 09:50:29;;;;;;;0.10;0.10;;;;;;;;;;5025417;28;20205;-67
2021/11/20 09:52:56;;;;;;;0.10;0.10;;;;;;;;;;5026238;28;20229;-68
2021/11/20 09:55:25;;;;;;;0.10;0.10;;;;;;;;;;5025630;28;20206;-67
2021/11/20 09:57:53;;;;;;;0.10;0.10;;;;;;;;;;5025550;28;20244;-67
2021/11/20 10:00:46;;;;;;;0.10;0.10;;;;;;;;;;5024950;28;20511;-68
2021/11/20 10:03:24;;;;;;;3.27;3.10;;;;;;;;;;4998151;28;20236;-69
2021/11/20 10:06:00;;;;;;;0.10;0.10;;;;;;;;;;5024882;28;20198;-69
2021/11/20 10:08:27;;;;;;;0.10;0.10;;;;;;;;;;5021748;28;20224;-68
2021/11/20 10:11:00;;;;;;;0.10;0.10;;;;;;;;;;5025582;28;20389;-68
2021/11/20 10:13:27;;;;;;;0.10;0.10;;;;;;;;;;5018078;28;20264;-69
2021/11/20 10:15:57;;;;;;;0.10;0.10;;;;;;;;;;5025755;28;20497;-68
2021/11/20 10:18:29;;;;;;;0.10;0.10;;;;;;;;;;5024075;28;20484;-66
2021/11/20 10:20:57;;;;;;;0.10;0.10;;;;;;;;;;5026060;28;20522;-68
2021/11/20 10:23:27;;;;;;;0.10;0.10;;;;;;;;;;5019315;28;20205;-68
2021/11/20 10:26:13;;;;;;;0.20;0.20;;;;;;;;;;5023552;28;20494;-63
2021/11/20 10:28:52;;;;;;;0.10;0.10;;;;;;;;;;5021029;28;20404;-65
2021/11/20 10:31:19;;;;;;;0.10;0.10;;;;;;;;;;5020769;28;20205;-62
2021/11/20 10:33:47;;;;;;;0.10;0.10;;;;;;;;;;5022274;28;20205;-63
2021/11/20 10:36:24;;;;;;;0.00;0.00;;;;;;;;;;5024249;28;20206;-63
2021/11/20 10:38:55;;;;;;;0.10;0.10;;;;;;;;;;5021418;28;20224;-63
2021/11/20 10:41:23;;;;;;;0.10;0.10;;;;;;;;;;5021337;28;20210;-63
2021/11/20 10:43:51;;;;;;;0.10;0.10;;;;;;;;;;5014637;28;20212;-63
2021/11/20 10:46:21;;;;;;;0.10;0.10;;;;;;;;;;5024411;28;20217;-63
2021/11/20 10:48:49;;;;;;;0.10;0.10;;;;;;;;;;5023046;28;20198;-63
2021/11/20 10:51:30;;;;;;;0.10;0.10;;;;;;;;;;5019746;28;20215;-62
2021/11/20 10:54:15;;;;;;;0.10;0.10;;;;;;;;;;5014570;28;20202;-62
2021/11/20 10:56:45;;;;;;;0.10;0.10;;;;;;;;;;5019877;28;20214;-69
2021/11/20 10:59:41;;;;;;;0.10;0.10;;;;;;;;;;5022602;28;20235;-69
2021/11/20 11:02:30;;;;;;;0.10;0.10;;;;;;;;;;4953249;29;20286;-67
2021/11/20 11:05:20;;;;;;;0.10;0.10;;;;;;;;;;5019268;28;20247;-68
2021/11/20 11:07:52;;;;;;;0.10;0.10;;;;;;;;;;5023477;28;20260;-68
2021/11/20 11:10:20;;;;;;;0.10;0.10;;;;;;;;;;5013602;28;20447;-68
2021/11/20 11:12:50;;;;;;;0.10;0.10;;;;;;;;;;5022377;28;20274;-69
2021/11/20 11:15:30;;;;;;;0.10;0.10;;;;;;;;;;5023805;28;20592;-69
2021/11/20 11:18:14;;;;;;;0.10;0.10;;;;;;;;;;5020414;28;20237;-72
2021/11/20 11:20:59;;;;;;;0.10;0.10;;;;;;;;;;5009704;28;20233;-69
2021/11/20 11:23:28;;;;;;;0.10;0.10;;;;;;;;;;5022909;28;20206;-70
2021/11/20 11:25:57;;;;;;;0.00;0.00;;;;;;;;;;5024392;28;20201;-69
2021/11/20 11:28:30;;;;;;;0.10;0.10;;;;;;;;;;5023943;28;20205;-69
2021/11/20 11:31:05;;;;;;;0.00;0.00;;;;;;;;;;5024144;28;20202;-69
2021/11/20 11:33:32;;;;;;;0.10;0.10;;;;;;;;;;5023155;28;20573;-69
2021/11/20 11:36:03;;;;;;;0.10;0.10;;;;;;;;;;5024495;28;20366;-68
2021/11/20 11:38:44;;;;;;;0.70;0.70;;;;;;;;;;5021979;28;20228;-68
2021/11/20 11:41:12;;;;;;;0.10;0.10;;;;;;;;;;5023536;28;20290;-68
2021/11/20 11:43:41;;;;;;;0.10;0.10;;;;;;;;;;5015060;28;20202;-70
2021/11/20 11:46:13;;;;;;;0.00;0.00;;;;;;;;;;5028707;28;20287;-69
2021/11/20 11:48:44;;;;;;;0.10;0.10;;;;;;;;;;5014262;28;20519;-69
2021/11/20 11:51:14;;;;;;;0.10;0.10;;;;;;;;;;5023273;28;20624;-67
2021/11/20 11:53:56;;;;;;;0.10;0.10;;;;;;;;;;5022527;28;20230;-68
2021/11/20 11:56:25;;;;;;;0.10;0.10;;;;;;;;;;5023274;28;20243;-68
2021/11/20 11:58:58;;;;;;;0.10;0.10;;;;;;;;;;5021035;28;20339;-68
2021/11/20 12:01:37;;;;;;;1.30;1.30;;;;;;;;;;5023687;28;20220;-69
2021/11/20 12:04:05;;;;;;;0.10;0.10;;;;;;;;;;5020079;28;20232;-69
2021/11/20 12:06:40;;;;;;;0.13;0.13;;;;;;;;;;5022325;28;20201;-70
2021/11/20 12:09:26;;;;;;;0.10;0.10;;;;;;;;;;5018577;28;20194;-69
2021/11/20 12:11:52;;;;;;;0.10;0.10;;;;;;;;;;5020376;28;20205;-69
2021/11/20 12:14:20;;;;;;;0.00;0.00;;;;;;;;;;5023311;28;20207;-69
2021/11/20 12:16:53;;;;;;;0.10;0.10;;;;;;;;;;5023333;28;20207;-69
2021/11/20 12:19:28;;;;;;;0.10;0.10;;;;;;;;;;5022959;28;20279;-69
2021/11/20 12:22:00;;;;;;;0.67;0.67;;;;;;;;;;5023392;28;20258;-69
2021/11/20 12:24:42;;;;;;;0.10;0.10;;;;;;;;;;5020578;28;20198;-70
2021/11/20 12:27:23;;;;;;;0.10;0.10;;;;;;;;;;5020574;28;20206;-70
2021/11/20 12:29:55;;;;;;;0.10;0.10;;;;;;;;;;5020491;28;20203;-70
2021/11/20 12:32:31;;;;;;;0.10;0.10;;;;;;;;;;5022274;28;20210;-71
2021/11/20 12:35:07;;;;;;;0.10;0.10;;;;;;;;;;5021159;28;20219;-70
2021/11/20 12:37:48;;;;;;;0.10;0.10;;;;;;;;;;5020169;28;20197;-69
2021/11/20 12:40:23;;;;;;;0.10;0.10;;;;;;;;;;5019991;28;20226;-69
2021/11/20 12:43:06;;;;;;;0.10;0.10;;;;;;;;;;5022141;28;20197;-69
2021/11/20 12:45:50;;;;;;;0.10;0.10;;;;;;;;;;5023177;28;20543;-69
2021/11/20 12:48:23;;;;;;;0.10;0.10;;;;;;;;;;5021569;28;20250;-69
2021/11/20 12:50:52;;;;;;;0.10;0.10;;;;;;;;;;5023094;28;20193;-69
2021/11/20 12:53:24;;;;;;;0.00;0.00;;;;;;;;;;5020344;28;20213;-70
2021/11/20 12:56:02;;;;;;;0.10;0.10;;;;;;;;;;5022896;28;20394;-70
2021/11/20 12:58:33;;;;;;;0.10;0.10;;;;;;;;;;5021149;28;20197;-69
2021/11/20 13:01:00;;;;;;;0.10;0.10;;;;;;;;;;5021595;28;20213;-70
2021/11/20 13:03:29;;;;;;;0.10;0.10;;;;;;;;;;5022362;28;20263;-69
2021/11/20 13:05:57;;;;;;;0.10;0.10;;;;;;;;;;5022646;28;20198;-70
2021/11/20 13:08:27;;;;;;;0.10;0.10;;;;;;;;;;5022514;28;20325;-69
2021/11/20 13:10:58;;;;;;;0.10;0.10;;;;;;;;;;5021320;28;20209;-69
2021/11/20 13:13:27;;;;;;;0.10;0.10;;;;;;;;;;5020153;28;20208;-68
2021/11/20 13:16:08;;;;;;;0.10;0.10;;;;;;;;;;5020802;28;20202;-70
2021/11/20 13:18:36;;;;;;;0.33;0.33;;;;;;;;;;5021825;28;20212;-70
2021/11/20 13:21:05;;;;;;;0.10;0.10;;;;;;;;;;5022741;28;20415;-70
2021/11/20 13:23:33;;;;;;;0.10;0.10;;;;;;;;;;5021685;28;20269;-70
2021/11/20 13:26:18;;;;;;;0.10;0.10;;;;;;;;;;5022750;28;20256;-69
2021/11/20 13:28:46;;;;;;;0.10;0.10;;;;;;;;;;5020615;28;20201;-70
2021/11/20 13:31:17;;;;;;;0.10;0.10;;;;;;;;;;5022775;28;20253;-69
2021/11/20 13:33:44;;;;;;;0.10;0.10;;;;;;;;;;5016384;28;20199;-69
2021/11/20 13:36:11;;;;;;;0.10;0.10;;;;;;;;;;5022826;28;20462;-69
2021/11/20 13:38:37;;;;;;;0.10;0.10;;;;;;;;;;5022358;28;20296;-70
2021/11/20 13:41:04;;;;;;;0.10;0.10;;;;;;;;;;5015731;28;20229;-68
2021/11/20 13:43:33;;;;;;;0.10;0.10;;;;;;;;;;5022339;28;20203;-71
2021/11/20 13:46:01;;;;;;;0.10;0.10;;;;;;;;;;5026790;28;20268;-71
2021/11/20 13:48:29;;;;;;;0.10;0.10;;;;;;;;;;5027689;28;20501;-69
2021/11/20 13:50:56;;;;;;;0.13;0.13;;;;;;;;;;5016038;28;20358;-68
2021/11/20 13:53:23;;;;;;;0.10;0.10;;;;;;;;;;5022325;28;20240;-68
2021/11/20 13:55:51;;;;;;;0.10;0.10;;;;;;;;;;5022478;28;20209;-68
2021/11/20 13:58:22;;;;;;;0.10;0.10;;;;;;;;;;5021273;28;20215;-69
2021/11/20 14:00:49;;;;;;;0.10;0.10;;;;;;;;;;5022323;28;20224;-69
2021/11/20 14:03:17;;;;;;;0.10;0.10;;;;;;;;;;5021532;28;20207;-68
2021/11/20 14:05:44;;;;;;;0.10;0.10;;;;;;;;;;5022000;28;20266;-69
2021/11/20 14:08:12;;;;;;;0.10;0.10;;;;;;;;;;5022197;28;20206;-67
2021/11/20 14:10:39;;;;;;;0.10;0.10;;;;;;;;;;5022163;28;20206;-69
2021/11/20 14:13:16;;;;;;;0.10;0.10;;;;;;;;;;5020117;28;20521;-69
2021/11/20 14:15:44;;;;;;;0.10;0.10;;;;;;;;;;5025704;28;20208;-68
2021/11/20 14:18:10;;;;;;;0.10;0.10;;;;;;;;;;5025185;28;20210;-69
2021/11/20 14:20:45;;;;;;;0.10;0.10;;;;;;;;;;5024575;28;20230;-68
2021/11/20 14:23:14;;;;;;;0.07;0.07;;;;;;;;;;5019442;28;20209;-69
2021/11/20 14:25:40;;;;;;;0.10;0.10;;;;;;;;;;5026138;28;20480;-71
2021/11/20 14:28:07;;;;;;;0.10;0.10;;;;;;;;;;5025564;28;20208;-67
2021/11/20 14:30:41;;;;;;;0.00;0.00;;;;;;;;;;5025284;28;20202;-67
2021/11/20 14:33:09;;;;;;;0.10;0.10;;;;;;;;;;5028260;28;20202;-69
2021/11/20 14:35:35;;;;;;;0.10;0.10;;;;;;;;;;5022892;28;20253;-70
2021/11/20 14:38:03;;;;;;;0.10;0.10;;;;;;;;;;5029802;28;20236;-71
2021/11/20 14:40:30;;;;;;;0.10;0.10;;;;;;;;;;5022147;28;20221;-71
2021/11/20 14:42:56;;;;;;;0.10;0.10;;;;;;;;;;5023977;28;20269;-70
2021/11/20 14:45:24;;;;;;;0.10;0.10;;;;;;;;;;5020574;28;20205;-70
2021/11/20 14:47:52;;;;;;;0.10;0.10;;;;;;;;;;5024112;28;20374;-71
2021/11/20 14:50:19;;;;;;;0.10;0.10;;;;;;;;;;5021873;28;20329;-70
2021/11/20 14:52:46;;;;;;;0.10;0.10;;;;;;;;;;5021914;28;20228;-70
2021/11/20 14:55:14;;;;;;;0.10;0.10;;;;;;;;;;5027376;28;20217;-69
2021/11/20 14:57:41;;;;;;;0.10;0.10;;;;;;;;;;5028036;28;20300;-69